Terminal Aerodrome Forecast
Issued by NWS Austin/San Antonio, TX

Home | Current Version | Previous Version | Text Only | Print | Product List | Glossary On
Versions: 1 2 3 4 5 6 7 8 9 10 11 12 13 14
000
FTUS44 KEWX 272300
TAFAUS
TAF
KAUS 272320Z 2800/2906 09008KT P6SM SCT070
     FM280200 13003KT P6SM SCT100
      TEMPO 2809/2813 P6SM FEW015
     FM281500 14008KT P6SM SCT050
     FM290300 16005KT P6SM FEW070=

USA.gov is the U.S. government's official web portal to all federal, state and local government web resources and services.